sensor_id;sensor_type;location;lat;lon;timestamp;P1;durP1;ratioP1;P2;durP2;ratioP2
13421;SDS011;6782;55.904;13.396;2023-03-14T00:01:58;27.33;;;7.60;;
13421;SDS011;6782;55.904;13.396;2023-03-14T00:04:45;27.50;;;7.10;;
13421;SDS011;6782;55.904;13.396;2023-03-14T00:07:33;28.93;;;7.17;;
13421;SDS011;6782;55.904;13.396;2023-03-14T00:10:21;23.40;;;5.83;;
13421;SDS011;6782;55.904;13.396;2023-03-14T00:13:09;31.83;;;6.77;;
13421;SDS011;6782;55.904;13.396;2023-03-14T00:16:01;26.43;;;7.07;;
13421;SDS011;6782;55.904;13.396;2023-03-14T00:18:50;29.53;;;6.93;;
13421;SDS011;6782;55.904;13.396;2023-03-14T00:21:37;30.77;;;6.93;;
13421;SDS011;6782;55.904;13.396;2023-03-14T00:24:24;24.83;;;6.77;;
13421;SDS011;6782;55.904;13.396;2023-03-14T00:27:12;29.20;;;6.83;;
13421;SDS011;6782;55.904;13.396;2023-03-14T00:30:00;22.20;;;6.03;;
13421;SDS011;6782;55.904;13.396;2023-03-14T00:32:47;25.10;;;6.40;;
13421;SDS011;6782;55.904;13.396;2023-03-14T00:35:36;27.60;;;6.60;;
13421;SDS011;6782;55.904;13.396;2023-03-14T00:38:23;25.90;;;6.27;;
13421;SDS011;6782;55.904;13.396;2023-03-14T00:41:12;23.97;;;6.23;;
13421;SDS011;6782;55.904;13.396;2023-03-14T00:44:01;26.23;;;6.40;;
13421;SDS011;6782;55.904;13.396;2023-03-14T00:46:49;26.23;;;6.53;;
13421;SDS011;6782;55.904;13.396;2023-03-14T00:49:36;22.40;;;5.77;;
13421;SDS011;6782;55.904;13.396;2023-03-14T00:52:25;31.30;;;7.00;;
13421;SDS011;6782;55.904;13.396;2023-03-14T00:55:13;22.80;;;6.57;;
13421;SDS011;6782;55.904;13.396;2023-03-14T00:58:00;20.17;;;6.33;;
13421;SDS011;6782;55.904;13.396;2023-03-14T01:00:47;26.80;;;6.23;;
13421;SDS011;6782;55.904;13.396;2023-03-14T01:03:34;21.27;;;6.00;;
13421;SDS011;6782;55.904;13.396;2023-03-14T01:06:23;28.40;;;6.30;;
13421;SDS011;6782;55.904;13.396;2023-03-14T01:09:14;21.63;;;5.70;;
13421;SDS011;6782;55.904;13.396;2023-03-14T01:12:03;26.40;;;5.70;;
13421;SDS011;6782;55.904;13.396;2023-03-14T01:14:51;28.50;;;6.37;;
13421;SDS011;6782;55.904;13.396;2023-03-14T01:17:38;23.93;;;6.10;;
13421;SDS011;6782;55.904;13.396;2023-03-14T01:20:25;27.47;;;6.20;;
13421;SDS011;6782;55.904;13.396;2023-03-14T01:23:13;21.97;;;5.93;;
13421;SDS011;6782;55.904;13.396;2023-03-14T01:26:02;19.50;;;5.60;;
13421;SDS011;6782;55.904;13.396;2023-03-14T01:28:50;29.37;;;6.33;;
13421;SDS011;6782;55.904;13.396;2023-03-14T01:31:38;25.50;;;6.17;;
13421;SDS011;6782;55.904;13.396;2023-03-14T01:34:26;21.73;;;5.80;;
13421;SDS011;6782;55.904;13.396;2023-03-14T01:37:13;19.40;;;5.30;;
13421;SDS011;6782;55.904;13.396;2023-03-14T01:40:00;20.83;;;6.23;;
13421;SDS011;6782;55.904;13.396;2023-03-14T01:42:55;22.53;;;5.93;;
13421;SDS011;6782;55.904;13.396;2023-03-14T01:49:07;30.70;;;6.53;;
13421;SDS011;6782;55.904;13.396;2023-03-14T01:52:00;20.03;;;5.70;;
13421;SDS011;6782;55.904;13.396;2023-03-14T01:54:51;22.73;;;5.47;;
13421;SDS011;6782;55.904;13.396;2023-03-14T01:57:42;18.50;;;6.13;;
13421;SDS011;6782;55.904;13.396;2023-03-14T02:00:34;27.70;;;6.80;;
13421;SDS011;6782;55.904;13.396;2023-03-14T02:03:21;22.03;;;6.20;;
13421;SDS011;6782;55.904;13.396;2023-03-14T02:06:11;23.33;;;6.00;;
13421;SDS011;6782;55.904;13.396;2023-03-14T02:09:02;22.07;;;6.40;;
13421;SDS011;6782;55.904;13.396;2023-03-14T02:11:50;19.87;;;6.63;;
13421;SDS011;6782;55.904;13.396;2023-03-14T02:14:38;26.03;;;6.07;;
13421;SDS011;6782;55.904;13.396;2023-03-14T02:17:27;16.97;;;5.30;;
13421;SDS011;6782;55.904;13.396;2023-03-14T02:20:19;17.53;;;5.60;;
13421;SDS011;6782;55.904;13.396;2023-03-14T02:23:15;20.13;;;6.43;;
13421;SDS011;6782;55.904;13.396;2023-03-14T02:26:08;22.50;;;6.10;;
13421;SDS011;6782;55.904;13.396;2023-03-14T02:29:03;21.17;;;6.13;;
13421;SDS011;6782;55.904;13.396;2023-03-14T02:31:51;18.73;;;5.63;;
13421;SDS011;6782;55.904;13.396;2023-03-14T02:34:38;16.13;;;5.97;;
13421;SDS011;6782;55.904;13.396;2023-03-14T02:37:28;19.43;;;5.63;;
13421;SDS011;6782;55.904;13.396;2023-03-14T02:40:22;22.33;;;5.63;;
13421;SDS011;6782;55.904;13.396;2023-03-14T02:43:09;16.70;;;5.33;;
13421;SDS011;6782;55.904;13.396;2023-03-14T02:45:58;17.37;;;5.53;;
13421;SDS011;6782;55.904;13.396;2023-03-14T02:48:47;19.87;;;4.93;;
13421;SDS011;6782;55.904;13.396;2023-03-14T02:51:38;20.63;;;5.27;;
13421;SDS011;6782;55.904;13.396;2023-03-14T02:54:28;17.33;;;5.03;;
13421;SDS011;6782;55.904;13.396;2023-03-14T02:57:15;22.50;;;5.97;;
13421;SDS011;6782;55.904;13.396;2023-03-14T03:00:02;16.30;;;4.97;;
13421;SDS011;6782;55.904;13.396;2023-03-14T03:02:52;21.87;;;5.47;;
13421;SDS011;6782;55.904;13.396;2023-03-14T03:05:40;21.23;;;5.57;;
13421;SDS011;6782;55.904;13.396;2023-03-14T03:08:29;18.07;;;5.43;;
13421;SDS011;6782;55.904;13.396;2023-03-14T03:11:17;15.97;;;5.33;;
13421;SDS011;6782;55.904;13.396;2023-03-14T03:14:05;16.60;;;5.00;;
13421;SDS011;6782;55.904;13.396;2023-03-14T03:16:52;21.03;;;5.33;;
13421;SDS011;6782;55.904;13.396;2023-03-14T03:19:42;16.27;;;5.00;;
13421;SDS011;6782;55.904;13.396;2023-03-14T03:22:29;17.13;;;5.07;;
13421;SDS011;6782;55.904;13.396;2023-03-14T03:25:17;17.13;;;4.83;;
13421;SDS011;6782;55.904;13.396;2023-03-14T03:28:04;18.47;;;5.03;;
13421;SDS011;6782;55.904;13.396;2023-03-14T03:30:53;18.20;;;5.67;;
13421;SDS011;6782;55.904;13.396;2023-03-14T03:33:40;18.50;;;5.23;;
13421;SDS011;6782;55.904;13.396;2023-03-14T03:36:28;21.90;;;5.63;;
13421;SDS011;6782;55.904;13.396;2023-03-14T03:39:16;18.33;;;4.90;;
13421;SDS011;6782;55.904;13.396;2023-03-14T03:42:04;20.20;;;5.70;;
13421;SDS011;6782;55.904;13.396;2023-03-14T03:44:51;16.30;;;5.47;;
13421;SDS011;6782;55.904;13.396;2023-03-14T03:47:38;19.83;;;5.50;;
13421;SDS011;6782;55.904;13.396;2023-03-14T03:50:26;19.23;;;5.03;;
13421;SDS011;6782;55.904;13.396;2023-03-14T03:53:14;17.47;;;5.30;;
13421;SDS011;6782;55.904;13.396;2023-03-14T03:56:01;21.07;;;5.43;;
13421;SDS011;6782;55.904;13.396;2023-03-14T03:58:49;22.70;;;5.60;;
13421;SDS011;6782;55.904;13.396;2023-03-14T04:01:36;24.93;;;5.57;;
13421;SDS011;6782;55.904;13.396;2023-03-14T04:04:23;17.97;;;5.63;;
13421;SDS011;6782;55.904;13.396;2023-03-14T04:07:10;20.90;;;5.30;;
13421;SDS011;6782;55.904;13.396;2023-03-14T04:10:00;19.57;;;5.33;;
13421;SDS011;6782;55.904;13.396;2023-03-14T04:12:48;21.07;;;4.93;;
13421;SDS011;6782;55.904;13.396;2023-03-14T04:15:35;23.07;;;5.63;;
13421;SDS011;6782;55.904;13.396;2023-03-14T04:18:22;18.80;;;5.27;;
13421;SDS011;6782;55.904;13.396;2023-03-14T04:21:10;20.77;;;5.93;;
13421;SDS011;6782;55.904;13.396;2023-03-14T04:23:57;23.33;;;5.40;;
13421;SDS011;6782;55.904;13.396;2023-03-14T04:26:46;16.60;;;4.77;;
13421;SDS011;6782;55.904;13.396;2023-03-14T04:29:33;17.03;;;5.17;;
13421;SDS011;6782;55.904;13.396;2023-03-14T04:32:21;22.13;;;5.33;;
13421;SDS011;6782;55.904;13.396;2023-03-14T04:35:08;19.70;;;5.77;;
13421;SDS011;6782;55.904;13.396;2023-03-14T04:37:55;17.20;;;5.27;;
13421;SDS011;6782;55.904;13.396;2023-03-14T04:40:43;19.93;;;5.87;;
13421;SDS011;6782;55.904;13.396;2023-03-14T04:43:32;21.87;;;5.87;;
13421;SDS011;6782;55.904;13.396;2023-03-14T04:46:20;21.87;;;5.50;;
13421;SDS011;6782;55.904;13.396;2023-03-14T04:49:07;20.30;;;5.03;;
13421;SDS011;6782;55.904;13.396;2023-03-14T04:51:54;20.53;;;6.50;;
13421;SDS011;6782;55.904;13.396;2023-03-14T04:54:41;21.03;;;6.13;;
13421;SDS011;6782;55.904;13.396;2023-03-14T04:57:29;19.30;;;6.00;;
13421;SDS011;6782;55.904;13.396;2023-03-14T05:00:21;17.13;;;4.90;;
13421;SDS011;6782;55.904;13.396;2023-03-14T05:03:08;14.20;;;5.50;;
13421;SDS011;6782;55.904;13.396;2023-03-14T05:05:55;19.27;;;5.57;;
13421;SDS011;6782;55.904;13.396;2023-03-14T05:08:42;21.40;;;4.77;;
13421;SDS011;6782;55.904;13.396;2023-03-14T05:11:30;15.23;;;4.60;;
13421;SDS011;6782;55.904;13.396;2023-03-14T05:14:18;21.80;;;5.63;;
13421;SDS011;6782;55.904;13.396;2023-03-14T05:17:06;18.53;;;5.67;;
13421;SDS011;6782;55.904;13.396;2023-03-14T05:19:54;16.10;;;4.93;;
13421;SDS011;6782;55.904;13.396;2023-03-14T05:22:42;19.70;;;5.57;;
13421;SDS011;6782;55.904;13.396;2023-03-14T05:25:29;17.33;;;4.77;;
13421;SDS011;6782;55.904;13.396;2023-03-14T05:28:16;17.73;;;5.47;;
13421;SDS011;6782;55.904;13.396;2023-03-14T05:31:06;17.63;;;5.20;;
13421;SDS011;6782;55.904;13.396;2023-03-14T05:33:55;18.67;;;5.43;;
13421;SDS011;6782;55.904;13.396;2023-03-14T05:36:42;17.53;;;5.70;;
13421;SDS011;6782;55.904;13.396;2023-03-14T05:39:30;19.50;;;5.13;;
13421;SDS011;6782;55.904;13.396;2023-03-14T05:42:17;19.90;;;5.47;;
13421;SDS011;6782;55.904;13.396;2023-03-14T05:45:05;13.90;;;4.90;;
13421;SDS011;6782;55.904;13.396;2023-03-14T05:47:53;20.30;;;5.40;;
13421;SDS011;6782;55.904;13.396;2023-03-14T05:50:42;17.10;;;5.37;;
13421;SDS011;6782;55.904;13.396;2023-03-14T05:53:29;18.60;;;5.27;;
13421;SDS011;6782;55.904;13.396;2023-03-14T05:56:16;16.33;;;5.00;;
13421;SDS011;6782;55.904;13.396;2023-03-14T05:59:03;14.73;;;4.90;;
13421;SDS011;6782;55.904;13.396;2023-03-14T06:01:51;17.40;;;5.97;;
13421;SDS011;6782;55.904;13.396;2023-03-14T06:04:38;19.90;;;5.30;;
13421;SDS011;6782;55.904;13.396;2023-03-14T06:07:27;15.00;;;4.93;;
13421;SDS011;6782;55.904;13.396;2023-03-14T06:10:14;16.83;;;5.17;;
13421;SDS011;6782;55.904;13.396;2023-03-14T06:13:01;15.50;;;5.03;;
13421;SDS011;6782;55.904;13.396;2023-03-14T06:15:48;18.10;;;5.07;;
13421;SDS011;6782;55.904;13.396;2023-03-14T06:18:36;12.27;;;4.33;;
13421;SDS011;6782;55.904;13.396;2023-03-14T06:21:23;16.33;;;4.93;;
13421;SDS011;6782;55.904;13.396;2023-03-14T06:24:13;14.33;;;5.13;;
13421;SDS011;6782;55.904;13.396;2023-03-14T06:27:01;15.53;;;5.17;;
13421;SDS011;6782;55.904;13.396;2023-03-14T06:29:48;16.27;;;4.87;;
13421;SDS011;6782;55.904;13.396;2023-03-14T06:32:36;15.67;;;4.87;;
13421;SDS011;6782;55.904;13.396;2023-03-14T06:35:23;13.77;;;4.70;;
13421;SDS011;6782;55.904;13.396;2023-03-14T06:38:10;11.37;;;3.90;;
13421;SDS011;6782;55.904;13.396;2023-03-14T06:41:04;14.63;;;4.10;;
13421;SDS011;6782;55.904;13.396;2023-03-14T06:43:52;15.07;;;4.10;;
13421;SDS011;6782;55.904;13.396;2023-03-14T06:46:39;18.30;;;4.10;;
13421;SDS011;6782;55.904;13.396;2023-03-14T06:49:27;13.90;;;4.27;;
13421;SDS011;6782;55.904;13.396;2023-03-14T06:52:14;14.07;;;4.43;;
13421;SDS011;6782;55.904;13.396;2023-03-14T06:55:01;15.33;;;4.83;;
13421;SDS011;6782;55.904;13.396;2023-03-14T06:57:50;17.33;;;4.93;;
13421;SDS011;6782;55.904;13.396;2023-03-14T07:00:37;15.37;;;4.77;;
13421;SDS011;6782;55.904;13.396;2023-03-14T07:03:24;18.93;;;5.30;;
13421;SDS011;6782;55.904;13.396;2023-03-14T07:06:11;17.13;;;5.77;;
13421;SDS011;6782;55.904;13.396;2023-03-14T07:08:59;14.43;;;5.23;;
13421;SDS011;6782;55.904;13.396;2023-03-14T07:11:46;14.43;;;5.03;;
13421;SDS011;6782;55.904;13.396;2023-03-14T07:14:35;14.70;;;4.70;;
13421;SDS011;6782;55.904;13.396;2023-03-14T07:17:22;13.33;;;4.80;;
13421;SDS011;6782;55.904;13.396;2023-03-14T07:20:09;13.20;;;4.30;;
13421;SDS011;6782;55.904;13.396;2023-03-14T07:22:57;19.23;;;5.13;;
13421;SDS011;6782;55.904;13.396;2023-03-14T07:25:45;9.67;;;4.30;;
13421;SDS011;6782;55.904;13.396;2023-03-14T07:28:33;14.40;;;5.07;;
13421;SDS011;6782;55.904;13.396;2023-03-14T07:31:22;15.33;;;5.07;;
13421;SDS011;6782;55.904;13.396;2023-03-14T07:34:10;17.27;;;5.17;;
13421;SDS011;6782;55.904;13.396;2023-03-14T07:36:57;12.03;;;4.90;;
13421;SDS011;6782;55.904;13.396;2023-03-14T07:39:44;11.97;;;5.63;;
13421;SDS011;6782;55.904;13.396;2023-03-14T07:42:32;17.23;;;5.47;;
13421;SDS011;6782;55.904;13.396;2023-03-14T07:45:19;12.73;;;5.03;;
13421;SDS011;6782;55.904;13.396;2023-03-14T07:48:08;13.67;;;6.03;;
13421;SDS011;6782;55.904;13.396;2023-03-14T07:50:55;15.57;;;5.87;;
13421;SDS011;6782;55.904;13.396;2023-03-14T07:53:42;12.07;;;5.63;;
13421;SDS011;6782;55.904;13.396;2023-03-14T07:56:29;11.07;;;6.37;;
13421;SDS011;6782;55.904;13.396;2023-03-14T07:59:16;13.93;;;6.70;;
13421;SDS011;6782;55.904;13.396;2023-03-14T08:02:03;13.43;;;5.90;;
13421;SDS011;6782;55.904;13.396;2023-03-14T08:04:57;12.43;;;6.47;;
13421;SDS011;6782;55.904;13.396;2023-03-14T08:07:44;9.97;;;5.80;;
13421;SDS011;6782;55.904;13.396;2023-03-14T08:10:32;10.63;;;6.10;;
13421;SDS011;6782;55.904;13.396;2023-03-14T08:13:19;13.27;;;7.00;;
13421;SDS011;6782;55.904;13.396;2023-03-14T08:16:07;16.10;;;7.47;;
13421;SDS011;6782;55.904;13.396;2023-03-14T08:18:54;12.23;;;6.47;;
13421;SDS011;6782;55.904;13.396;2023-03-14T08:21:44;12.73;;;6.30;;
13421;SDS011;6782;55.904;13.396;2023-03-14T08:24:31;9.30;;;6.50;;
13421;SDS011;6782;55.904;13.396;2023-03-14T08:27:18;15.70;;;7.17;;
13421;SDS011;6782;55.904;13.396;2023-03-14T08:30:06;13.33;;;6.80;;
13421;SDS011;6782;55.904;13.396;2023-03-14T08:32:55;11.53;;;6.17;;
13421;SDS011;6782;55.904;13.396;2023-03-14T08:35:43;9.37;;;6.63;;
13421;SDS011;6782;55.904;13.396;2023-03-14T08:38:31;11.73;;;6.83;;
13421;SDS011;6782;55.904;13.396;2023-03-14T08:41:18;13.20;;;6.40;;
13421;SDS011;6782;55.904;13.396;2023-03-14T08:44:05;14.00;;;6.77;;
13421;SDS011;6782;55.904;13.396;2023-03-14T08:46:52;10.00;;;5.90;;
13421;SDS011;6782;55.904;13.396;2023-03-14T08:49:40;11.63;;;6.00;;
13421;SDS011;6782;55.904;13.396;2023-03-14T08:52:27;10.97;;;6.23;;
13421;SDS011;6782;55.904;13.396;2023-03-14T08:55:16;9.83;;;5.40;;
13421;SDS011;6782;55.904;13.396;2023-03-14T08:58:03;9.93;;;5.50;;
13421;SDS011;6782;55.904;13.396;2023-03-14T09:00:51;14.50;;;5.80;;
13421;SDS011;6782;55.904;13.396;2023-03-14T09:03:38;9.80;;;5.43;;
13421;SDS011;6782;55.904;13.396;2023-03-14T09:06:25;9.40;;;5.13;;
13421;SDS011;6782;55.904;13.396;2023-03-14T09:09:13;9.23;;;5.70;;
13421;SDS011;6782;55.904;13.396;2023-03-14T09:12:01;9.17;;;4.97;;
13421;SDS011;6782;55.904;13.396;2023-03-14T09:14:49;7.73;;;4.73;;
13421;SDS011;6782;55.904;13.396;2023-03-14T09:17:36;10.13;;;5.03;;
13421;SDS011;6782;55.904;13.396;2023-03-14T09:20:23;12.17;;;4.83;;
13421;SDS011;6782;55.904;13.396;2023-03-14T09:23:10;7.30;;;4.27;;
13421;SDS011;6782;55.904;13.396;2023-03-14T09:25:58;9.00;;;4.07;;
13421;SDS011;6782;55.904;13.396;2023-03-14T09:28:47;7.40;;;3.80;;
13421;SDS011;6782;55.904;13.396;2023-03-14T09:31:35;6.50;;;4.00;;
13421;SDS011;6782;55.904;13.396;2023-03-14T09:34:25;5.97;;;4.30;;
13421;SDS011;6782;55.904;13.396;2023-03-14T09:37:12;7.63;;;4.13;;
13421;SDS011;6782;55.904;13.396;2023-03-14T09:40:01;3.93;;;3.53;;
13421;SDS011;6782;55.904;13.396;2023-03-14T09:42:55;6.83;;;4.10;;
13421;SDS011;6782;55.904;13.396;2023-03-14T09:45:46;7.80;;;4.00;;
13421;SDS011;6782;55.904;13.396;2023-03-14T09:48:35;7.90;;;3.90;;
13421;SDS011;6782;55.904;13.396;2023-03-14T09:51:22;4.30;;;3.03;;
13421;SDS011;6782;55.904;13.396;2023-03-14T09:54:14;5.03;;;2.90;;
13421;SDS011;6782;55.904;13.396;2023-03-14T09:57:14;8.03;;;3.67;;
13421;SDS011;6782;55.904;13.396;2023-03-14T10:00:05;5.23;;;3.53;;
13421;SDS011;6782;55.904;13.396;2023-03-14T10:03:06;4.13;;;3.03;;
13421;SDS011;6782;55.904;13.396;2023-03-14T10:06:09;5.10;;;3.20;;
13421;SDS011;6782;55.904;13.396;2023-03-14T10:08:58;5.47;;;3.13;;
13421;SDS011;6782;55.904;13.396;2023-03-14T10:11:45;4.07;;;2.47;;
13421;SDS011;6782;55.904;13.396;2023-03-14T10:14:33;3.50;;;2.20;;
13421;SDS011;6782;55.904;13.396;2023-03-14T10:17:22;1.97;;;1.70;;
13421;SDS011;6782;55.904;13.396;2023-03-14T10:20:25;1.63;;;1.30;;
13421;SDS011;6782;55.904;13.396;2023-03-14T10:23:26;3.00;;;1.50;;
13421;SDS011;6782;55.904;13.396;2023-03-14T10:26:16;3.80;;;1.80;;
13421;SDS011;6782;55.904;13.396;2023-03-14T10:29:08;3.60;;;1.60;;
13421;SDS011;6782;55.904;13.396;2023-03-14T10:31:59;5.60;;;2.33;;
13421;SDS011;6782;55.904;13.396;2023-03-14T10:35:03;4.73;;;2.10;;
13421;SDS011;6782;55.904;13.396;2023-03-14T10:38:10;8.73;;;2.60;;
13421;SDS011;6782;55.904;13.396;2023-03-14T10:41:00;8.57;;;2.53;;
13421;SDS011;6782;55.904;13.396;2023-03-14T10:43:49;7.07;;;3.07;;
13421;SDS011;6782;55.904;13.396;2023-03-14T10:46:37;7.90;;;2.77;;
13421;SDS011;6782;55.904;13.396;2023-03-14T10:49:26;7.63;;;2.90;;
13421;SDS011;6782;55.904;13.396;2023-03-14T10:52:18;8.57;;;2.93;;
13421;SDS011;6782;55.904;13.396;2023-03-14T10:55:11;11.87;;;3.33;;
13421;SDS011;6782;55.904;13.396;2023-03-14T10:57:59;9.03;;;2.93;;
13421;SDS011;6782;55.904;13.396;2023-03-14T11:00:46;9.23;;;2.47;;
13421;SDS011;6782;55.904;13.396;2023-03-14T11:03:38;12.53;;;3.27;;
13421;SDS011;6782;55.904;13.396;2023-03-14T11:06:34;9.47;;;2.77;;
13421;SDS011;6782;55.904;13.396;2023-03-14T11:09:29;6.23;;;2.30;;
13421;SDS011;6782;55.904;13.396;2023-03-14T11:12:29;5.87;;;2.30;;
13421;SDS011;6782;55.904;13.396;2023-03-14T11:15:27;7.53;;;2.27;;
13421;SDS011;6782;55.904;13.396;2023-03-14T11:18:36;6.97;;;2.27;;
13421;SDS011;6782;55.904;13.396;2023-03-14T11:21:37;6.43;;;1.97;;
13421;SDS011;6782;55.904;13.396;2023-03-14T11:24:36;7.27;;;1.77;;
13421;SDS011;6782;55.904;13.396;2023-03-14T11:27:40;6.03;;;1.50;;
13421;SDS011;6782;55.904;13.396;2023-03-14T11:30:32;4.30;;;1.53;;
13421;SDS011;6782;55.904;13.396;2023-03-14T11:33:27;3.40;;;1.30;;
13421;SDS011;6782;55.904;13.396;2023-03-14T11:36:19;4.43;;;1.57;;
13421;SDS011;6782;55.904;13.396;2023-03-14T11:39:12;4.17;;;1.47;;
13421;SDS011;6782;55.904;13.396;2023-03-14T11:42:02;4.93;;;1.30;;
13421;SDS011;6782;55.904;13.396;2023-03-14T11:44:50;2.63;;;1.47;;
13421;SDS011;6782;55.904;13.396;2023-03-14T11:47:39;2.40;;;1.10;;
13421;SDS011;6782;55.904;13.396;2023-03-14T11:50:29;6.17;;;1.77;;
13421;SDS011;6782;55.904;13.396;2023-03-14T11:53:18;4.10;;;1.60;;
13421;SDS011;6782;55.904;13.396;2023-03-14T11:56:09;3.33;;;1.50;;
13421;SDS011;6782;55.904;13.396;2023-03-14T11:59:05;6.73;;;1.73;;
13421;SDS011;6782;55.904;13.396;2023-03-14T12:01:58;3.93;;;1.53;;
13421;SDS011;6782;55.904;13.396;2023-03-14T12:04:53;7.20;;;1.50;;
13421;SDS011;6782;55.904;13.396;2023-03-14T12:07:58;3.63;;;1.70;;
13421;SDS011;6782;55.904;13.396;2023-03-14T12:11:06;4.23;;;1.67;;
13421;SDS011;6782;55.904;13.396;2023-03-14T12:13:59;7.07;;;1.70;;
13421;SDS011;6782;55.904;13.396;2023-03-14T12:16:47;7.27;;;2.33;;
13421;SDS011;6782;55.904;13.396;2023-03-14T12:19:48;6.67;;;1.97;;
13421;SDS011;6782;55.904;13.396;2023-03-14T12:22:49;8.87;;;2.47;;
13421;SDS011;6782;55.904;13.396;2023-03-14T12:25:38;8.73;;;2.13;;
13421;SDS011;6782;55.904;13.396;2023-03-14T12:28:30;8.43;;;2.53;;
13421;SDS011;6782;55.904;13.396;2023-03-14T12:34:28;10.73;;;2.60;;
13421;SDS011;6782;55.904;13.396;2023-03-14T12:37:22;9.73;;;2.53;;
13421;SDS011;6782;55.904;13.396;2023-03-14T12:40:15;8.37;;;2.63;;
13421;SDS011;6782;55.904;13.396;2023-03-14T12:43:20;9.13;;;2.13;;
13421;SDS011;6782;55.904;13.396;2023-03-14T12:46:19;7.93;;;2.63;;
13421;SDS011;6782;55.904;13.396;2023-03-14T12:49:08;10.97;;;2.40;;
13421;SDS011;6782;55.904;13.396;2023-03-14T12:51:58;8.63;;;2.73;;
13421;SDS011;6782;55.904;13.396;2023-03-14T12:54:48;13.27;;;2.73;;
13421;SDS011;6782;55.904;13.396;2023-03-14T12:57:44;10.07;;;3.03;;
13421;SDS011;6782;55.904;13.396;2023-03-14T13:00:38;8.40;;;2.53;;
13421;SDS011;6782;55.904;13.396;2023-03-14T13:03:31;9.03;;;2.93;;
13421;SDS011;6782;55.904;13.396;2023-03-14T13:06:44;14.27;;;2.47;;
13421;SDS011;6782;55.904;13.396;2023-03-14T13:12:50;8.10;;;2.37;;
13421;SDS011;6782;55.904;13.396;2023-03-14T13:15:39;8.63;;;2.50;;
13421;SDS011;6782;55.904;13.396;2023-03-14T13:18:29;8.10;;;2.13;;
13421;SDS011;6782;55.904;13.396;2023-03-14T13:21:21;6.97;;;2.27;;
13421;SDS011;6782;55.904;13.396;2023-03-14T13:24:20;9.40;;;2.27;;
13421;SDS011;6782;55.904;13.396;2023-03-14T13:27:14;7.13;;;2.00;;
13421;SDS011;6782;55.904;13.396;2023-03-14T13:30:05;8.43;;;2.20;;
13421;SDS011;6782;55.904;13.396;2023-03-14T13:33:03;10.43;;;2.53;;
13421;SDS011;6782;55.904;13.396;2023-03-14T13:35:54;8.87;;;2.60;;
13421;SDS011;6782;55.904;13.396;2023-03-14T13:38:42;6.57;;;2.53;;
13421;SDS011;6782;55.904;13.396;2023-03-14T13:41:29;6.70;;;2.40;;
13421;SDS011;6782;55.904;13.396;2023-03-14T13:44:25;9.70;;;2.30;;
13421;SDS011;6782;55.904;13.396;2023-03-14T13:47:17;7.03;;;2.33;;
13421;SDS011;6782;55.904;13.396;2023-03-14T13:50:11;4.20;;;2.23;;
13421;SDS011;6782;55.904;13.396;2023-03-14T13:53:01;9.77;;;2.33;;
13421;SDS011;6782;55.904;13.396;2023-03-14T13:55:49;7.90;;;2.57;;
13421;SDS011;6782;55.904;13.396;2023-03-14T13:58:37;9.37;;;2.30;;
13421;SDS011;6782;55.904;13.396;2023-03-14T14:01:27;10.03;;;2.23;;
13421;SDS011;6782;55.904;13.396;2023-03-14T14:04:18;8.60;;;2.50;;
13421;SDS011;6782;55.904;13.396;2023-03-14T14:07:08;7.20;;;2.27;;
13421;SDS011;6782;55.904;13.396;2023-03-14T14:09:58;7.47;;;2.40;;
13421;SDS011;6782;55.904;13.396;2023-03-14T14:12:48;7.00;;;2.53;;
13421;SDS011;6782;55.904;13.396;2023-03-14T14:15:40;5.63;;;2.10;;
13421;SDS011;6782;55.904;13.396;2023-03-14T14:18:31;8.47;;;2.30;;
13421;SDS011;6782;55.904;13.396;2023-03-14T14:21:20;6.30;;;2.10;;
13421;SDS011;6782;55.904;13.396;2023-03-14T14:24:08;5.37;;;1.80;;
13421;SDS011;6782;55.904;13.396;2023-03-14T14:26:59;6.07;;;2.13;;
13421;SDS011;6782;55.904;13.396;2023-03-14T14:29:56;10.20;;;2.00;;
13421;SDS011;6782;55.904;13.396;2023-03-14T14:32:45;4.70;;;1.93;;
13421;SDS011;6782;55.904;13.396;2023-03-14T14:35:36;7.83;;;2.27;;
13421;SDS011;6782;55.904;13.396;2023-03-14T14:38:23;7.23;;;2.17;;
13421;SDS011;6782;55.904;13.396;2023-03-14T14:41:10;9.23;;;2.70;;
13421;SDS011;6782;55.904;13.396;2023-03-14T14:43:58;7.33;;;1.80;;
13421;SDS011;6782;55.904;13.396;2023-03-14T14:46:46;9.10;;;2.87;;
13421;SDS011;6782;55.904;13.396;2023-03-14T14:49:33;4.87;;;1.73;;
13421;SDS011;6782;55.904;13.396;2023-03-14T14:52:30;7.83;;;2.13;;
13421;SDS011;6782;55.904;13.396;2023-03-14T14:55:20;6.93;;;1.77;;
13421;SDS011;6782;55.904;13.396;2023-03-14T14:58:11;4.57;;;2.00;;
13421;SDS011;6782;55.904;13.396;2023-03-14T15:01:05;5.60;;;1.60;;
13421;SDS011;6782;55.904;13.396;2023-03-14T15:03:58;8.20;;;1.90;;
13421;SDS011;6782;55.904;13.396;2023-03-14T15:06:46;5.27;;;1.60;;
13421;SDS011;6782;55.904;13.396;2023-03-14T15:09:37;5.83;;;1.97;;
13421;SDS011;6782;55.904;13.396;2023-03-14T15:12:24;3.43;;;1.80;;
13421;SDS011;6782;55.904;13.396;2023-03-14T15:15:11;2.77;;;1.90;;
13421;SDS011;6782;55.904;13.396;2023-03-14T15:17:59;7.83;;;2.30;;
13421;SDS011;6782;55.904;13.396;2023-03-14T15:20:46;8.83;;;2.20;;
13421;SDS011;6782;55.904;13.396;2023-03-14T15:23:33;5.80;;;2.20;;
13421;SDS011;6782;55.904;13.396;2023-03-14T15:26:23;5.77;;;1.90;;
13421;SDS011;6782;55.904;13.396;2023-03-14T15:29:12;7.83;;;2.17;;
13421;SDS011;6782;55.904;13.396;2023-03-14T15:31:59;5.60;;;2.00;;
13421;SDS011;6782;55.904;13.396;2023-03-14T15:34:47;9.90;;;2.23;;
13421;SDS011;6782;55.904;13.396;2023-03-14T15:37:34;7.03;;;2.00;;
13421;SDS011;6782;55.904;13.396;2023-03-14T15:40:26;5.67;;;2.40;;
13421;SDS011;6782;55.904;13.396;2023-03-14T15:43:16;6.80;;;1.90;;
13421;SDS011;6782;55.904;13.396;2023-03-14T15:46:04;7.70;;;2.13;;
13421;SDS011;6782;55.904;13.396;2023-03-14T15:48:51;9.23;;;2.30;;
13421;SDS011;6782;55.904;13.396;2023-03-14T15:51:39;5.90;;;2.10;;
13421;SDS011;6782;55.904;13.396;2023-03-14T15:54:26;7.97;;;2.23;;
13421;SDS011;6782;55.904;13.396;2023-03-14T15:57:13;7.43;;;2.23;;
13421;SDS011;6782;55.904;13.396;2023-03-14T16:00:02;6.37;;;2.10;;
13421;SDS011;6782;55.904;13.396;2023-03-14T16:02:53;12.53;;;2.80;;
13421;SDS011;6782;55.904;13.396;2023-03-14T16:05:40;6.00;;;1.90;;
13421;SDS011;6782;55.904;13.396;2023-03-14T16:08:28;7.77;;;2.03;;
13421;SDS011;6782;55.904;13.396;2023-03-14T16:11:15;7.23;;;2.50;;
13421;SDS011;6782;55.904;13.396;2023-03-14T16:14:03;9.83;;;2.37;;
13421;SDS011;6782;55.904;13.396;2023-03-14T16:16:52;5.43;;;1.90;;
13421;SDS011;6782;55.904;13.396;2023-03-14T16:19:40;6.57;;;2.00;;
13421;SDS011;6782;55.904;13.396;2023-03-14T16:22:27;5.63;;;2.13;;
13421;SDS011;6782;55.904;13.396;2023-03-14T16:25:18;8.70;;;2.13;;
13421;SDS011;6782;55.904;13.396;2023-03-14T16:28:05;5.57;;;1.90;;
13421;SDS011;6782;55.904;13.396;2023-03-14T16:30:57;7.27;;;2.47;;
13421;SDS011;6782;55.904;13.396;2023-03-14T16:33:48;9.67;;;2.27;;
13421;SDS011;6782;55.904;13.396;2023-03-14T16:36:35;11.00;;;2.70;;
13421;SDS011;6782;55.904;13.396;2023-03-14T16:39:23;7.77;;;2.57;;
13421;SDS011;6782;55.904;13.396;2023-03-14T16:42:13;4.40;;;2.10;;
13421;SDS011;6782;55.904;13.396;2023-03-14T16:45:00;6.50;;;2.07;;
13421;SDS011;6782;55.904;13.396;2023-03-14T16:47:47;6.43;;;1.90;;
13421;SDS011;6782;55.904;13.396;2023-03-14T16:50:36;6.70;;;1.90;;
13421;SDS011;6782;55.904;13.396;2023-03-14T16:53:25;4.50;;;2.00;;
13421;SDS011;6782;55.904;13.396;2023-03-14T16:56:14;6.97;;;2.10;;
13421;SDS011;6782;55.904;13.396;2023-03-14T16:59:02;8.80;;;2.50;;
13421;SDS011;6782;55.904;13.396;2023-03-14T17:01:40;8.20;;;2.03;;
13421;SDS011;6782;55.904;13.396;2023-03-14T17:04:08;6.57;;;1.63;;